<?xml version='1.0' encoding='UTF-8'?><gpx version="1.1" creator="JPX - https://github.com/jenetics/jpx" xmlns="http://www.topografix.com/GPX/1/1"><trk><trkseg><trkpt lat="37.5151383" lon="15.0512267"><ele>135.0</ele><time>2026-05-03T10:22:22.674Z</time></trkpt><trkpt lat="37.5150617" lon="15.0512567"><ele>135.0</ele><time>2026-05-03T10:23:07.671Z</time></trkpt><trkpt lat="37.5150983" lon="15.0513333"><ele>135.0</ele><time>2026-05-03T10:23:13.674Z</time></trkpt><trkpt lat="37.5151067" lon="15.0514233"><ele>135.0</ele><time>2026-05-03T10:23:15.671Z</time></trkpt><trkpt lat="37.5151183" lon="15.0515433"><ele>135.0</ele><time>2026-05-03T10:23:17.675Z</time></trkpt><trkpt lat="37.5151333" lon="15.0516833"><ele>135.0</ele><time>2026-05-03T10:23:19.67Z</time></trkpt><trkpt lat="37.5151383" lon="15.051765"><ele>134.83333333333334</ele><time>2026-05-03T10:23:20.672Z</time></trkpt><trkpt lat="37.5151467" lon="15.051855"><ele>134.66666666666666</ele><time>2026-05-03T10:23:21.67Z</time></trkpt><trkpt lat="37.51516" lon="15.0519433"><ele>134.5</ele><time>2026-05-03T10:23:22.669Z</time></trkpt><trkpt lat="37.515165" lon="15.0520267"><ele>134.33333333333331</ele><time>2026-05-03T10:23:23.67Z</time></trkpt><trkpt lat="37.515175" lon="15.0521133"><ele>134.16666666666666</ele><time>2026-05-03T10:23:24.67Z</time></trkpt><trkpt lat="37.5151867" lon="15.0521967"><ele>134.0</ele><time>2026-05-03T10:23:25.671Z</time></trkpt><trkpt lat="37.5151867" lon="15.0523367"><ele>134.0</ele><time>2026-05-03T10:23:27.67Z</time></trkpt><trkpt lat="37.5151433" lon="15.052435"><ele>134.0</ele><time>2026-05-03T10:23:29.67Z</time></trkpt><trkpt lat="37.51502" lon="15.05248"><ele>134.0</ele><time>2026-05-03T10:23:31.672Z</time></trkpt><trkpt lat="37.5149283" lon="15.0524817"><ele>134.0</ele><time>2026-05-03T10:23:32.67Z</time></trkpt><trkpt lat="37.5148267" lon="15.0524717"><ele>134.0</ele><time>2026-05-03T10:23:33.669Z</time></trkpt><trkpt lat="37.5147317" lon="15.05247"><ele>133.4</ele><time>2026-05-03T10:23:34.669Z</time></trkpt><trkpt lat="37.5146333" lon="15.0524733"><ele>132.8</ele><time>2026-05-03T10:23:35.67Z</time></trkpt><trkpt lat="37.51454" lon="15.0524817"><ele>132.2</ele><time>2026-05-03T10:23:36.67Z</time></trkpt><trkpt lat="37.5144567" lon="15.0524833"><ele>131.6</ele><time>2026-05-03T10:23:37.671Z</time></trkpt><trkpt lat="37.514385" lon="15.0524833"><ele>131.0</ele><time>2026-05-03T10:23:38.67Z</time></trkpt><trkpt lat="37.5142783" lon="15.052475"><ele>131.0</ele><time>2026-05-03T10:23:40.67Z</time></trkpt><trkpt lat="37.5142167" lon="15.0524433"><ele>131.0</ele><time>2026-05-03T10:23:47.67Z</time></trkpt><trkpt lat="37.5141917" lon="15.0523267"><ele>131.0</ele><time>2026-05-03T10:23:49.672Z</time></trkpt><trkpt lat="37.5141733" lon="15.052165"><ele>131.0</ele><time>2026-05-03T10:23:51.67Z</time></trkpt><trkpt lat="37.514165" lon="15.0520717"><ele>131.0</ele><time>2026-05-03T10:23:52.672Z</time></trkpt><trkpt lat="37.514155" lon="15.0519717"><ele>131.0</ele><time>2026-05-03T10:23:53.67Z</time></trkpt><trkpt lat="37.5141383" lon="15.0518667"><ele>131.0</ele><time>2026-05-03T10:23:54.67Z</time></trkpt><trkpt lat="37.51412" lon="15.0517633"><ele>131.0</ele><time>2026-05-03T10:23:55.67Z</time></trkpt><trkpt lat="37.514105" lon="15.0516533"><ele>131.0</ele><time>2026-05-03T10:23:56.67Z</time></trkpt><trkpt lat="37.5140867" lon="15.0515383"><ele>131.0</ele><time>2026-05-03T10:23:57.669Z</time></trkpt><trkpt lat="37.5140667" lon="15.0514183"><ele>131.0</ele><time>2026-05-03T10:23:58.67Z</time></trkpt><trkpt lat="37.5140433" lon="15.0512933"><ele>131.6</ele><time>2026-05-03T10:23:59.67Z</time></trkpt><trkpt lat="37.5140217" lon="15.0511633"><ele>132.2</ele><time>2026-05-03T10:24:00.669Z</time></trkpt><trkpt lat="37.514" lon="15.0510333"><ele>132.8</ele><time>2026-05-03T10:24:01.674Z</time></trkpt><trkpt lat="37.513985" lon="15.0509033"><ele>133.4</ele><time>2026-05-03T10:24:02.67Z</time></trkpt><trkpt lat="37.5139667" lon="15.0507717"><ele>134.0</ele><time>2026-05-03T10:24:03.67Z</time></trkpt><trkpt lat="37.5139433" lon="15.050635"><ele>134.0</ele><time>2026-05-03T10:24:04.67Z</time></trkpt><trkpt lat="37.5139217" lon="15.0504983"><ele>134.0</ele><time>2026-05-03T10:24:05.67Z</time></trkpt><trkpt lat="37.5138983" lon="15.0503583"><ele>134.0</ele><time>2026-05-03T10:24:06.67Z</time></trkpt><trkpt lat="37.51388" lon="15.0502133"><ele>134.0</ele><time>2026-05-03T10:24:07.671Z</time></trkpt><trkpt lat="37.5138567" lon="15.050065"><ele>134.25</ele><time>2026-05-03T10:24:08.674Z</time></trkpt><trkpt lat="37.513835" lon="15.0499167"><ele>134.5</ele><time>2026-05-03T10:24:09.671Z</time></trkpt><trkpt lat="37.51381" lon="15.049765"><ele>134.75</ele><time>2026-05-03T10:24:10.669Z</time></trkpt><trkpt lat="37.513785" lon="15.0496167"><ele>135.0</ele><time>2026-05-03T10:24:11.67Z</time></trkpt><trkpt lat="37.5137583" lon="15.0494667"><ele>134.75</ele><time>2026-05-03T10:24:12.671Z</time></trkpt><trkpt lat="37.5137333" lon="15.049315"><ele>134.5</ele><time>2026-05-03T10:24:13.67Z</time></trkpt><trkpt lat="37.5137117" lon="15.0491617"><ele>134.25</ele><time>2026-05-03T10:24:14.671Z</time></trkpt><trkpt lat="37.5136833" lon="15.0490033"><ele>134.0</ele><time>2026-05-03T10:24:15.671Z</time></trkpt><trkpt lat="37.513655" lon="15.0488433"><ele>134.0</ele><time>2026-05-03T10:24:16.671Z</time></trkpt><trkpt lat="37.5136283" lon="15.0486883"><ele>134.0</ele><time>2026-05-03T10:24:17.67Z</time></trkpt><trkpt lat="37.5136117" lon="15.048535"><ele>134.0</ele><time>2026-05-03T10:24:18.671Z</time></trkpt><trkpt lat="37.513595" lon="15.0483883"><ele>134.0</ele><time>2026-05-03T10:24:19.67Z</time></trkpt><trkpt lat="37.5135817" lon="15.0482483"><ele>134.25</ele><time>2026-05-03T10:24:20.671Z</time></trkpt><trkpt lat="37.5135583" lon="15.0480983"><ele>134.5</ele><time>2026-05-03T10:24:21.67Z</time></trkpt><trkpt lat="37.5135317" lon="15.0479467"><ele>134.75</ele><time>2026-05-03T10:24:22.669Z</time></trkpt><trkpt lat="37.513505" lon="15.0478"><ele>135.0</ele><time>2026-05-03T10:24:23.669Z</time></trkpt><trkpt lat="37.51348" lon="15.04766"><ele>135.0</ele><time>2026-05-03T10:24:24.67Z</time></trkpt><trkpt lat="37.51346" lon="15.0475383"><ele>135.0</ele><time>2026-05-03T10:24:25.67Z</time></trkpt><trkpt lat="37.51344" lon="15.0474233"><ele>135.0</ele><time>2026-05-03T10:24:26.67Z</time></trkpt><trkpt lat="37.5134267" lon="15.04733"><ele>135.0</ele><time>2026-05-03T10:24:27.673Z</time></trkpt><trkpt lat="37.5134033" lon="15.04719"><ele>135.0</ele><time>2026-05-03T10:24:29.67Z</time></trkpt><trkpt lat="37.5133867" lon="15.0470767"><ele>135.4</ele><time>2026-05-03T10:24:31.67Z</time></trkpt><trkpt lat="37.5133167" lon="15.0469767"><ele>135.8</ele><time>2026-05-03T10:24:34.67Z</time></trkpt><trkpt lat="37.5132167" lon="15.0469583"><ele>136.2</ele><time>2026-05-03T10:24:37.67Z</time></trkpt><trkpt lat="37.5130967" lon="15.0469683"><ele>136.6</ele><time>2026-05-03T10:24:39.67Z</time></trkpt><trkpt lat="37.5130317" lon="15.0469767"><ele>137.0</ele><time>2026-05-03T10:24:40.67Z</time></trkpt><trkpt lat="37.5129633" lon="15.0469917"><ele>136.5</ele><time>2026-05-03T10:24:41.67Z</time></trkpt><trkpt lat="37.5128917" lon="15.0470133"><ele>136.0</ele><time>2026-05-03T10:24:42.669Z</time></trkpt><trkpt lat="37.5128217" lon="15.047035"><ele>135.5</ele><time>2026-05-03T10:24:43.67Z</time></trkpt><trkpt lat="37.51275" lon="15.0470517"><ele>135.0</ele><time>2026-05-03T10:24:44.669Z</time></trkpt><trkpt lat="37.5126717" lon="15.0470733"><ele>134.5</ele><time>2026-05-03T10:24:45.669Z</time></trkpt><trkpt lat="37.51259" lon="15.0470967"><ele>134.0</ele><time>2026-05-03T10:24:46.672Z</time></trkpt><trkpt lat="37.5125083" lon="15.0471183"><ele>134.0</ele><time>2026-05-03T10:24:47.669Z</time></trkpt><trkpt lat="37.5124267" lon="15.0471383"><ele>134.0</ele><time>2026-05-03T10:24:48.668Z</time></trkpt><trkpt lat="37.5123417" lon="15.0471567"><ele>134.0</ele><time>2026-05-03T10:24:49.669Z</time></trkpt><trkpt lat="37.5122517" lon="15.0471717"><ele>134.0</ele><time>2026-05-03T10:24:50.673Z</time></trkpt><trkpt lat="37.5121583" lon="15.04719"><ele>134.0</ele><time>2026-05-03T10:24:51.669Z</time></trkpt><trkpt lat="37.512065" lon="15.0472083"><ele>134.0</ele><time>2026-05-03T10:24:52.669Z</time></trkpt><trkpt lat="37.5119667" lon="15.0472217"><ele>133.75</ele><time>2026-05-03T10:24:53.673Z</time></trkpt><trkpt lat="37.5118667" lon="15.0472417"><ele>133.5</ele><time>2026-05-03T10:24:54.669Z</time></trkpt><trkpt lat="37.51176" lon="15.04727"><ele>133.25</ele><time>2026-05-03T10:24:55.669Z</time></trkpt><trkpt lat="37.5116433" lon="15.0473"><ele>133.0</ele><time>2026-05-03T10:24:56.669Z</time></trkpt><trkpt lat="37.51152" lon="15.047325"><ele>133.0</ele><time>2026-05-03T10:24:57.669Z</time></trkpt><trkpt lat="37.5113933" lon="15.0473433"><ele>133.0</ele><time>2026-05-03T10:24:58.673Z</time></trkpt><trkpt lat="37.511265" lon="15.0473617"><ele>133.0</ele><time>2026-05-03T10:24:59.671Z</time></trkpt><trkpt lat="37.5111283" lon="15.0473833"><ele>133.0</ele><time>2026-05-03T10:25:00.669Z</time></trkpt><trkpt lat="37.5109783" lon="15.0474067"><ele>132.75</ele><time>2026-05-03T10:25:01.672Z</time></trkpt><trkpt lat="37.510835" lon="15.0474233"><ele>132.5</ele><time>2026-05-03T10:25:02.67Z</time></trkpt><trkpt lat="37.5106983" lon="15.0474383"><ele>132.25</ele><time>2026-05-03T10:25:03.673Z</time></trkpt><trkpt lat="37.5105733" lon="15.0474533"><ele>132.0</ele><time>2026-05-03T10:25:04.669Z</time></trkpt><trkpt lat="37.51045" lon="15.0474717"><ele>131.75</ele><time>2026-05-03T10:25:05.669Z</time></trkpt><trkpt lat="37.5103283" lon="15.0474917"><ele>131.5</ele><time>2026-05-03T10:25:06.67Z</time></trkpt><trkpt lat="37.5102083" lon="15.0475117"><ele>131.25</ele><time>2026-05-03T10:25:07.669Z</time></trkpt><trkpt lat="37.510095" lon="15.0475333"><ele>131.0</ele><time>2026-05-03T10:25:08.67Z</time></trkpt><trkpt lat="37.5099917" lon="15.04755"><ele>131.0</ele><time>2026-05-03T10:25:09.67Z</time></trkpt><trkpt lat="37.5098983" lon="15.0475667"><ele>131.0</ele><time>2026-05-03T10:25:10.67Z</time></trkpt><trkpt lat="37.5098117" lon="15.0475783"><ele>131.0</ele><time>2026-05-03T10:25:11.669Z</time></trkpt><trkpt lat="37.50973" lon="15.0475917"><ele>131.0</ele><time>2026-05-03T10:25:12.669Z</time></trkpt><trkpt lat="37.5096517" lon="15.0476017"><ele>131.0</ele><time>2026-05-03T10:25:13.67Z</time></trkpt><trkpt lat="37.50958" lon="15.0476133"><ele>131.0</ele><time>2026-05-03T10:25:14.669Z</time></trkpt><trkpt lat="37.5095133" lon="15.0476267"><ele>130.6</ele><time>2026-05-03T10:25:15.67Z</time></trkpt><trkpt lat="37.509395" lon="15.0476467"><ele>130.2</ele><time>2026-05-03T10:25:17.67Z</time></trkpt><trkpt lat="37.50927" lon="15.0476683"><ele>129.8</ele><time>2026-05-03T10:25:19.67Z</time></trkpt><trkpt lat="37.5092017" lon="15.0476767"><ele>129.4</ele><time>2026-05-03T10:25:20.669Z</time></trkpt><trkpt lat="37.5091283" lon="15.0476883"><ele>129.0</ele><time>2026-05-03T10:25:21.669Z</time></trkpt><trkpt lat="37.5090517" lon="15.0477033"><ele>129.0</ele><time>2026-05-03T10:25:22.669Z</time></trkpt><trkpt lat="37.508975" lon="15.0477167"><ele>129.0</ele><time>2026-05-03T10:25:23.672Z</time></trkpt><trkpt lat="37.5088967" lon="15.04773"><ele>129.0</ele><time>2026-05-03T10:25:24.669Z</time></trkpt><trkpt lat="37.5088133" lon="15.0477467"><ele>129.0</ele><time>2026-05-03T10:25:25.67Z</time></trkpt><trkpt lat="37.50873" lon="15.0477617"><ele>129.0</ele><time>2026-05-03T10:25:26.671Z</time></trkpt><trkpt lat="37.5086367" lon="15.0477767"><ele>129.0</ele><time>2026-05-03T10:25:27.669Z</time></trkpt><trkpt lat="37.5085333" lon="15.0477983"><ele>128.25</ele><time>2026-05-03T10:25:28.67Z</time></trkpt><trkpt lat="37.50842" lon="15.047815"><ele>127.5</ele><time>2026-05-03T10:25:29.67Z</time></trkpt><trkpt lat="37.508305" lon="15.047835"><ele>126.75</ele><time>2026-05-03T10:25:30.67Z</time></trkpt><trkpt lat="37.5081933" lon="15.0478533"><ele>126.0</ele><time>2026-05-03T10:25:31.669Z</time></trkpt><trkpt lat="37.508085" lon="15.047865"><ele>126.0</ele><time>2026-05-03T10:25:32.67Z</time></trkpt><trkpt lat="37.50798" lon="15.0478767"><ele>126.0</ele><time>2026-05-03T10:25:33.669Z</time></trkpt><trkpt lat="37.5078767" lon="15.0478933"><ele>126.0</ele><time>2026-05-03T10:25:34.67Z</time></trkpt><trkpt lat="37.5077767" lon="15.0479083"><ele>126.0</ele><time>2026-05-03T10:25:35.67Z</time></trkpt><trkpt lat="37.5076833" lon="15.0479267"><ele>126.0</ele><time>2026-05-03T10:25:36.669Z</time></trkpt><trkpt lat="37.5075917" lon="15.047945"><ele>125.66666666666667</ele><time>2026-05-03T10:25:37.67Z</time></trkpt><trkpt lat="37.50751" lon="15.0479567"><ele>125.33333333333334</ele><time>2026-05-03T10:25:38.67Z</time></trkpt><trkpt lat="37.5074433" lon="15.0479667"><ele>125.0</ele><time>2026-05-03T10:25:39.67Z</time></trkpt><trkpt lat="37.5073383" lon="15.0479867"><ele>124.66666666666667</ele><time>2026-05-03T10:25:41.672Z</time></trkpt><trkpt lat="37.50726" lon="15.0479833"><ele>124.33333333333334</ele><time>2026-05-03T10:25:43.67Z</time></trkpt><trkpt lat="37.5072033" lon="15.047925"><ele>124.0</ele><time>2026-05-03T10:25:45.671Z</time></trkpt><trkpt lat="37.5071567" lon="15.0477767"><ele>124.00000000000001</ele><time>2026-05-03T10:25:47.67Z</time></trkpt><trkpt lat="37.5071333" lon="15.0476883"><ele>124.0</ele><time>2026-05-03T10:25:48.67Z</time></trkpt><trkpt lat="37.5071217" lon="15.0476"><ele>124.0</ele><time>2026-05-03T10:25:49.67Z</time></trkpt><trkpt lat="37.50712" lon="15.0475133"><ele>124.0</ele><time>2026-05-03T10:25:50.67Z</time></trkpt><trkpt lat="37.5071117" lon="15.0473983"><ele>124.00000000000001</ele><time>2026-05-03T10:25:52.669Z</time></trkpt><trkpt lat="37.5070967" lon="15.0472933"><ele>124.0</ele><time>2026-05-03T10:25:55.671Z</time></trkpt><trkpt lat="37.5070783" lon="15.0471833"><ele>123.66666666666667</ele><time>2026-05-03T10:25:57.67Z</time></trkpt><trkpt lat="37.507065" lon="15.04708"><ele>123.33333333333334</ele><time>2026-05-03T10:25:59.671Z</time></trkpt><trkpt lat="37.5070467" lon="15.0469983"><ele>123.0</ele><time>2026-05-03T10:26:01.669Z</time></trkpt><trkpt lat="37.5070417" lon="15.0469083"><ele>122.66666666666666</ele><time>2026-05-03T10:26:04.669Z</time></trkpt><trkpt lat="37.5069533" lon="15.046865"><ele>122.33333333333333</ele><time>2026-05-03T10:26:07.671Z</time></trkpt><trkpt lat="37.5068867" lon="15.0468767"><ele>122.0</ele><time>2026-05-03T10:26:08.671Z</time></trkpt><trkpt lat="37.506805" lon="15.0468983"><ele>121.99999999999999</ele><time>2026-05-03T10:26:09.669Z</time></trkpt><trkpt lat="37.506725" lon="15.0469283"><ele>122.0</ele><time>2026-05-03T10:26:10.67Z</time></trkpt><trkpt lat="37.50664" lon="15.046955"><ele>122.0</ele><time>2026-05-03T10:26:11.67Z</time></trkpt><trkpt lat="37.5065533" lon="15.04698"><ele>122.0</ele><time>2026-05-03T10:26:12.67Z</time></trkpt><trkpt lat="37.5064667" lon="15.0470067"><ele>121.99999999999999</ele><time>2026-05-03T10:26:13.67Z</time></trkpt><trkpt lat="37.5063833" lon="15.047035"><ele>122.0</ele><time>2026-05-03T10:26:14.671Z</time></trkpt><trkpt lat="37.5063117" lon="15.04706"><ele>121.33333333333333</ele><time>2026-05-03T10:26:15.672Z</time></trkpt><trkpt lat="37.5062383" lon="15.0470817"><ele>120.66666666666666</ele><time>2026-05-03T10:26:16.669Z</time></trkpt><trkpt lat="37.5061667" lon="15.0471067"><ele>120.0</ele><time>2026-05-03T10:26:17.67Z</time></trkpt><trkpt lat="37.506095" lon="15.0471367"><ele>119.33333333333334</ele><time>2026-05-03T10:26:18.67Z</time></trkpt><trkpt lat="37.5060217" lon="15.04717"><ele>118.66666666666667</ele><time>2026-05-03T10:26:19.67Z</time></trkpt><trkpt lat="37.505955" lon="15.04722"><ele>118.0</ele><time>2026-05-03T10:26:20.67Z</time></trkpt><trkpt lat="37.5058883" lon="15.0472783"><ele>118.0</ele><time>2026-05-03T10:26:21.67Z</time></trkpt><trkpt lat="37.5058183" lon="15.0473433"><ele>118.00000000000001</ele><time>2026-05-03T10:26:22.67Z</time></trkpt><trkpt lat="37.5057483" lon="15.0474183"><ele>118.00000000000001</ele><time>2026-05-03T10:26:23.671Z</time></trkpt><trkpt lat="37.50568" lon="15.047495"><ele>118.0</ele><time>2026-05-03T10:26:24.67Z</time></trkpt><trkpt lat="37.5056133" lon="15.0475733"><ele>118.0</ele><time>2026-05-03T10:26:25.67Z</time></trkpt><trkpt lat="37.5055417" lon="15.0476517"><ele>118.60000000000001</ele><time>2026-05-03T10:26:26.67Z</time></trkpt><trkpt lat="37.5054667" lon="15.04773"><ele>119.20000000000002</ele><time>2026-05-03T10:26:27.67Z</time></trkpt><trkpt lat="37.5053867" lon="15.0478067"><ele>119.8</ele><time>2026-05-03T10:26:28.67Z</time></trkpt><trkpt lat="37.5053067" lon="15.0478717"><ele>120.4</ele><time>2026-05-03T10:26:29.67Z</time></trkpt><trkpt lat="37.5052317" lon="15.0479333"><ele>121.0</ele><time>2026-05-03T10:26:30.67Z</time></trkpt><trkpt lat="37.5051667" lon="15.0479967"><ele>119.83333333333334</ele><time>2026-05-03T10:26:31.67Z</time></trkpt><trkpt lat="37.5051017" lon="15.0480283"><ele>118.66666666666667</ele><time>2026-05-03T10:26:32.67Z</time></trkpt><trkpt lat="37.5050433" lon="15.0480633"><ele>117.5</ele><time>2026-05-03T10:26:33.67Z</time></trkpt><trkpt lat="37.5049233" lon="15.048095"><ele>116.33333333333334</ele><time>2026-05-03T10:26:35.67Z</time></trkpt><trkpt lat="37.5048517" lon="15.048095"><ele>115.16666666666667</ele><time>2026-05-03T10:26:36.669Z</time></trkpt><trkpt lat="37.5047717" lon="15.0480933"><ele>114.0</ele><time>2026-05-03T10:26:37.67Z</time></trkpt><trkpt lat="37.504685" lon="15.0481"><ele>114.0</ele><time>2026-05-03T10:26:38.672Z</time></trkpt><trkpt lat="37.5046083" lon="15.04812"><ele>114.0</ele><time>2026-05-03T10:26:39.669Z</time></trkpt><trkpt lat="37.5045417" lon="15.04814"><ele>114.0</ele><time>2026-05-03T10:26:40.669Z</time></trkpt><trkpt lat="37.504465" lon="15.0481583"><ele>114.0</ele><time>2026-05-03T10:26:41.67Z</time></trkpt><trkpt lat="37.50439" lon="15.04818"><ele>114.0</ele><time>2026-05-03T10:26:42.67Z</time></trkpt><trkpt lat="37.5043" lon="15.048195"><ele>114.0</ele><time>2026-05-03T10:26:43.67Z</time></trkpt><trkpt lat="37.5042267" lon="15.0482333"><ele>112.66666666666667</ele><time>2026-05-03T10:26:44.67Z</time></trkpt><trkpt lat="37.5041667" lon="15.0482817"><ele>111.33333333333334</ele><time>2026-05-03T10:26:45.67Z</time></trkpt><trkpt lat="37.5041183" lon="15.048335"><ele>110.0</ele><time>2026-05-03T10:26:46.671Z</time></trkpt><trkpt lat="37.5040583" lon="15.04841"><ele>108.66666666666667</ele><time>2026-05-03T10:26:48.67Z</time></trkpt><trkpt lat="37.5039767" lon="15.04838"><ele>107.33333333333334</ele><time>2026-05-03T10:26:50.67Z</time></trkpt><trkpt lat="37.5039383" lon="15.0482783"><ele>106.0</ele><time>2026-05-03T10:26:52.67Z</time></trkpt><trkpt lat="37.50394" lon="15.0481983"><ele>106.0</ele><time>2026-05-03T10:26:53.67Z</time></trkpt><trkpt lat="37.5039483" lon="15.048025"><ele>106.0</ele><time>2026-05-03T10:26:55.671Z</time></trkpt><trkpt lat="37.5039633" lon="15.0479267"><ele>106.0</ele><time>2026-05-03T10:26:56.674Z</time></trkpt><trkpt lat="37.5039867" lon="15.047825"><ele>106.0</ele><time>2026-05-03T10:26:57.674Z</time></trkpt><trkpt lat="37.504005" lon="15.0477283"><ele>106.0</ele><time>2026-05-03T10:26:58.673Z</time></trkpt><trkpt lat="37.50402" lon="15.0476333"><ele>106.00000000000001</ele><time>2026-05-03T10:26:59.674Z</time></trkpt><trkpt lat="37.5040433" lon="15.0475417"><ele>106.0</ele><time>2026-05-03T10:27:00.67Z</time></trkpt><trkpt lat="37.5040967" lon="15.0474683"><ele>106.0</ele><time>2026-05-03T10:27:01.672Z</time></trkpt><trkpt lat="37.504155" lon="15.0474083"><ele>106.0</ele><time>2026-05-03T10:27:02.673Z</time></trkpt><trkpt lat="37.50422" lon="15.04736"><ele>106.00000000000001</ele><time>2026-05-03T10:27:03.669Z</time></trkpt><trkpt lat="37.5042883" lon="15.04731"><ele>106.0</ele><time>2026-05-03T10:27:04.672Z</time></trkpt><trkpt lat="37.5043533" lon="15.0472633"><ele>106.85714285714286</ele><time>2026-05-03T10:27:05.67Z</time></trkpt><trkpt lat="37.5044183" lon="15.0472217"><ele>107.71428571428571</ele><time>2026-05-03T10:27:06.669Z</time></trkpt><trkpt lat="37.5044833" lon="15.0471783"><ele>108.57142857142857</ele><time>2026-05-03T10:27:07.67Z</time></trkpt><trkpt lat="37.50455" lon="15.0471283"><ele>109.42857142857143</ele><time>2026-05-03T10:27:08.67Z</time></trkpt><trkpt lat="37.5046133" lon="15.0470767"><ele>110.28571428571428</ele><time>2026-05-03T10:27:09.669Z</time></trkpt><trkpt lat="37.5046667" lon="15.0470217"><ele>111.14285714285714</ele><time>2026-05-03T10:27:10.67Z</time></trkpt><trkpt lat="37.504705" lon="15.0469583"><ele>112.0</ele><time>2026-05-03T10:27:11.673Z</time></trkpt><trkpt lat="37.5047233" lon="15.0468767"><ele>113.16666666666667</ele><time>2026-05-03T10:27:12.673Z</time></trkpt><trkpt lat="37.504735" lon="15.0467917"><ele>114.33333333333334</ele><time>2026-05-03T10:27:13.761Z</time></trkpt><trkpt lat="37.5047333" lon="15.0466967"><ele>115.5</ele><time>2026-05-03T10:27:14.672Z</time></trkpt><trkpt lat="37.5047283" lon="15.046595"><ele>116.66666666666666</ele><time>2026-05-03T10:27:15.673Z</time></trkpt><trkpt lat="37.5047233" lon="15.0464883"><ele>117.83333333333333</ele><time>2026-05-03T10:27:16.672Z</time></trkpt><trkpt lat="37.5047167" lon="15.0463833"><ele>119.0</ele><time>2026-05-03T10:27:17.67Z</time></trkpt><trkpt lat="37.504705" lon="15.0462833"><ele>120.4</ele><time>2026-05-03T10:27:18.67Z</time></trkpt><trkpt lat="37.504695" lon="15.0461733"><ele>121.80000000000001</ele><time>2026-05-03T10:27:19.671Z</time></trkpt><trkpt lat="37.50468" lon="15.0460417"><ele>123.19999999999999</ele><time>2026-05-03T10:27:20.672Z</time></trkpt><trkpt lat="37.50467" lon="15.04592"><ele>124.6</ele><time>2026-05-03T10:27:21.67Z</time></trkpt><trkpt lat="37.50466" lon="15.0457933"><ele>126.0</ele><time>2026-05-03T10:27:22.67Z</time></trkpt><trkpt lat="37.5046517" lon="15.0456683"><ele>126.6</ele><time>2026-05-03T10:27:23.67Z</time></trkpt><trkpt lat="37.50464" lon="15.0455433"><ele>127.19999999999999</ele><time>2026-05-03T10:27:24.669Z</time></trkpt><trkpt lat="37.504635" lon="15.045415"><ele>127.80000000000001</ele><time>2026-05-03T10:27:25.669Z</time></trkpt><trkpt lat="37.5046267" lon="15.0452867"><ele>128.4</ele><time>2026-05-03T10:27:26.671Z</time></trkpt><trkpt lat="37.5046133" lon="15.045165"><ele>129.0</ele><time>2026-05-03T10:27:27.67Z</time></trkpt><trkpt lat="37.5046033" lon="15.045045"><ele>129.4</ele><time>2026-05-03T10:27:28.67Z</time></trkpt><trkpt lat="37.5045967" lon="15.044925"><ele>129.8</ele><time>2026-05-03T10:27:29.673Z</time></trkpt><trkpt lat="37.50459" lon="15.0448033"><ele>130.2</ele><time>2026-05-03T10:27:30.672Z</time></trkpt><trkpt lat="37.50458" lon="15.0446817"><ele>130.6</ele><time>2026-05-03T10:27:31.674Z</time></trkpt><trkpt lat="37.5045717" lon="15.0445617"><ele>131.0</ele><time>2026-05-03T10:27:32.67Z</time></trkpt><trkpt lat="37.504565" lon="15.04445"><ele>131.33333333333331</ele><time>2026-05-03T10:27:33.67Z</time></trkpt><trkpt lat="37.5045567" lon="15.0443467"><ele>131.66666666666666</ele><time>2026-05-03T10:27:34.67Z</time></trkpt><trkpt lat="37.5045417" lon="15.0442467"><ele>132.0</ele><time>2026-05-03T10:27:35.671Z</time></trkpt><trkpt lat="37.5045267" lon="15.044155"><ele>132.33333333333334</ele><time>2026-05-03T10:27:36.671Z</time></trkpt><trkpt lat="37.5045333" lon="15.04407"><ele>132.66666666666669</ele><time>2026-05-03T10:27:38.672Z</time></trkpt><trkpt lat="37.5046217" lon="15.0440383"><ele>133.0</ele><time>2026-05-03T10:27:42.671Z</time></trkpt><trkpt lat="37.50469" lon="15.04403"><ele>133.0</ele><time>2026-05-03T10:27:43.672Z</time></trkpt><trkpt lat="37.5047633" lon="15.0440267"><ele>133.0</ele><time>2026-05-03T10:27:44.671Z</time></trkpt><trkpt lat="37.5048367" lon="15.044025"><ele>133.0</ele><time>2026-05-03T10:27:45.67Z</time></trkpt><trkpt lat="37.50491" lon="15.04402"><ele>133.0</ele><time>2026-05-03T10:27:46.671Z</time></trkpt><trkpt lat="37.5049833" lon="15.0440117"><ele>133.0</ele><time>2026-05-03T10:27:47.671Z</time></trkpt><trkpt lat="37.5050567" lon="15.044"><ele>133.0</ele><time>2026-05-03T10:27:48.671Z</time></trkpt><trkpt lat="37.5051317" lon="15.0439917"><ele>133.0</ele><time>2026-05-03T10:27:49.671Z</time></trkpt><trkpt lat="37.5052033" lon="15.0439833"><ele>133.0</ele><time>2026-05-03T10:27:50.671Z</time></trkpt><trkpt lat="37.5052783" lon="15.0439783"><ele>133.0</ele><time>2026-05-03T10:27:51.67Z</time></trkpt><trkpt lat="37.5053483" lon="15.0439733"><ele>133.0</ele><time>2026-05-03T10:27:52.671Z</time></trkpt><trkpt lat="37.505415" lon="15.0439667"><ele>133.0</ele><time>2026-05-03T10:27:53.67Z</time></trkpt><trkpt lat="37.5054817" lon="15.0439583"><ele>133.0</ele><time>2026-05-03T10:27:54.67Z</time></trkpt><trkpt lat="37.5055517" lon="15.0439467"><ele>133.0</ele><time>2026-05-03T10:27:55.669Z</time></trkpt><trkpt lat="37.505625" lon="15.043935"><ele>133.0</ele><time>2026-05-03T10:27:56.672Z</time></trkpt><trkpt lat="37.5057" lon="15.0439267"><ele>134.83333333333334</ele><time>2026-05-03T10:27:57.671Z</time></trkpt><trkpt lat="37.5057767" lon="15.0439167"><ele>136.66666666666669</ele><time>2026-05-03T10:27:58.669Z</time></trkpt><trkpt lat="37.5058533" lon="15.0439083"><ele>138.5</ele><time>2026-05-03T10:27:59.671Z</time></trkpt><trkpt lat="37.5059267" lon="15.0439033"><ele>140.33333333333334</ele><time>2026-05-03T10:28:00.67Z</time></trkpt><trkpt lat="37.5059983" lon="15.0438983"><ele>142.16666666666666</ele><time>2026-05-03T10:28:01.673Z</time></trkpt><trkpt lat="37.5060667" lon="15.0438933"><ele>144.0</ele><time>2026-05-03T10:28:02.67Z</time></trkpt><trkpt lat="37.5061633" lon="15.0438817"><ele>144.0</ele><time>2026-05-03T10:28:04.669Z</time></trkpt><trkpt lat="37.50622" lon="15.04383"><ele>144.0</ele><time>2026-05-03T10:28:07.671Z</time></trkpt><trkpt lat="37.5062333" lon="15.0436917"><ele>144.0</ele><time>2026-05-03T10:28:24.67Z</time></trkpt><trkpt lat="37.50627" lon="15.0435917"><ele>144.0</ele><time>2026-05-03T10:28:26.672Z</time></trkpt><trkpt lat="37.5063" lon="15.0434717"><ele>144.0</ele><time>2026-05-03T10:28:28.671Z</time></trkpt><trkpt lat="37.5063033" lon="15.0433767"><ele>144.0</ele><time>2026-05-03T10:28:30.671Z</time></trkpt><trkpt lat="37.5062833" lon="15.04329"><ele>144.0</ele><time>2026-05-03T10:28:32.671Z</time></trkpt><trkpt lat="37.50625" lon="15.0431733"><ele>144.0</ele><time>2026-05-03T10:28:34.672Z</time></trkpt><trkpt lat="37.5062167" lon="15.0430383"><ele>144.0</ele><time>2026-05-03T10:28:36.669Z</time></trkpt><trkpt lat="37.5061967" lon="15.04289"><ele>144.0</ele><time>2026-05-03T10:28:38.67Z</time></trkpt><trkpt lat="37.5061817" lon="15.0427433"><ele>144.0</ele><time>2026-05-03T10:28:40.67Z</time></trkpt><trkpt lat="37.5061783" lon="15.0426017"><ele>143.8</ele><time>2026-05-03T10:28:42.669Z</time></trkpt><trkpt lat="37.5061717" lon="15.0424533"><ele>143.60000000000002</ele><time>2026-05-03T10:28:44.67Z</time></trkpt><trkpt lat="37.5061817" lon="15.0423183"><ele>143.4</ele><time>2026-05-03T10:28:46.67Z</time></trkpt><trkpt lat="37.5062067" lon="15.0421967"><ele>143.20000000000002</ele><time>2026-05-03T10:28:48.669Z</time></trkpt><trkpt lat="37.5062467" lon="15.0420733"><ele>143.0</ele><time>2026-05-03T10:28:50.67Z</time></trkpt><trkpt lat="37.5062983" lon="15.0419467"><ele>145.16666666666666</ele><time>2026-05-03T10:28:52.67Z</time></trkpt><trkpt lat="37.5063583" lon="15.04183"><ele>147.33333333333331</ele><time>2026-05-03T10:28:54.669Z</time></trkpt><trkpt lat="37.5064183" lon="15.0417467"><ele>149.5</ele><time>2026-05-03T10:28:56.67Z</time></trkpt><trkpt lat="37.5064783" lon="15.0417"><ele>151.66666666666666</ele><time>2026-05-03T10:28:58.669Z</time></trkpt><trkpt lat="37.506545" lon="15.041695"><ele>153.83333333333334</ele><time>2026-05-03T10:29:00.672Z</time></trkpt><trkpt lat="37.5066083" lon="15.0417067"><ele>156.0</ele><time>2026-05-03T10:29:02.67Z</time></trkpt><trkpt lat="37.5067033" lon="15.0416933"><ele>156.0</ele><time>2026-05-03T10:29:05.669Z</time></trkpt><trkpt lat="37.5067717" lon="15.041655"><ele>156.0</ele><time>2026-05-03T10:29:07.668Z</time></trkpt><trkpt lat="37.5068383" lon="15.0416183"><ele>156.0</ele><time>2026-05-03T10:29:09.668Z</time></trkpt><trkpt lat="37.5069033" lon="15.0415917"><ele>156.0</ele><time>2026-05-03T10:29:11.669Z</time></trkpt><trkpt lat="37.50699" lon="15.041555"><ele>156.0</ele><time>2026-05-03T10:29:14.67Z</time></trkpt><trkpt lat="37.5070483" lon="15.04152"><ele>156.0</ele><time>2026-05-03T10:29:16.669Z</time></trkpt><trkpt lat="37.5070967" lon="15.041465"><ele>156.0</ele><time>2026-05-03T10:29:18.668Z</time></trkpt><trkpt lat="37.507145" lon="15.041405"><ele>157.66666666666666</ele><time>2026-05-03T10:29:20.669Z</time></trkpt><trkpt lat="37.5072133" lon="15.0413433"><ele>159.33333333333334</ele><time>2026-05-03T10:29:23.669Z</time></trkpt><trkpt lat="37.5072933" lon="15.041305"><ele>161.0</ele><time>2026-05-03T10:29:26.671Z</time></trkpt><trkpt lat="37.5073583" lon="15.0412983"><ele>162.66666666666669</ele><time>2026-05-03T10:29:28.669Z</time></trkpt><trkpt lat="37.5074267" lon="15.0412817"><ele>164.33333333333334</ele><time>2026-05-03T10:29:30.672Z</time></trkpt><trkpt lat="37.5075083" lon="15.041255"><ele>166.0</ele><time>2026-05-03T10:29:32.672Z</time></trkpt><trkpt lat="37.5075783" lon="15.041225"><ele>166.0</ele><time>2026-05-03T10:29:34.669Z</time></trkpt><trkpt lat="37.5076483" lon="15.0412067"><ele>166.0</ele><time>2026-05-03T10:29:36.669Z</time></trkpt><trkpt lat="37.5077167" lon="15.0411717"><ele>166.0</ele><time>2026-05-03T10:29:38.669Z</time></trkpt><trkpt lat="37.5077783" lon="15.0411483"><ele>166.0</ele><time>2026-05-03T10:29:40.669Z</time></trkpt><trkpt lat="37.5078417" lon="15.0411183"><ele>166.0</ele><time>2026-05-03T10:29:42.669Z</time></trkpt><trkpt lat="37.507905" lon="15.0410783"><ele>166.0</ele><time>2026-05-03T10:29:44.669Z</time></trkpt><trkpt lat="37.50799" lon="15.04103"><ele>166.0</ele><time>2026-05-03T10:29:47.67Z</time></trkpt><trkpt lat="37.5080483" lon="15.0409367"><ele>169.0</ele><time>2026-05-03T10:29:50.67Z</time></trkpt><trkpt lat="37.5080667" lon="15.0408467"><ele>172.0</ele><time>2026-05-03T10:29:52.669Z</time></trkpt><trkpt lat="37.5080767" lon="15.04075"><ele>175.0</ele><time>2026-05-03T10:29:54.669Z</time></trkpt><trkpt lat="37.5080917" lon="15.0406317"><ele>178.0</ele><time>2026-05-03T10:29:56.673Z</time></trkpt><trkpt lat="37.508105" lon="15.0404933"><ele>181.0</ele><time>2026-05-03T10:29:58.669Z</time></trkpt><trkpt lat="37.5081183" lon="15.0403617"><ele>180.8</ele><time>2026-05-03T10:30:00.671Z</time></trkpt><trkpt lat="37.5081367" lon="15.0402317"><ele>180.60000000000002</ele><time>2026-05-03T10:30:02.673Z</time></trkpt><trkpt lat="37.50815" lon="15.0401"><ele>180.4</ele><time>2026-05-03T10:30:04.671Z</time></trkpt><trkpt lat="37.508165" lon="15.0399683"><ele>180.2</ele><time>2026-05-03T10:30:06.668Z</time></trkpt><trkpt lat="37.5081867" lon="15.0398333"><ele>180.0</ele><time>2026-05-03T10:30:08.67Z</time></trkpt><trkpt lat="37.5081917" lon="15.0396817"><ele>180.0</ele><time>2026-05-03T10:30:10.672Z</time></trkpt><trkpt lat="37.5082" lon="15.0395333"><ele>180.0</ele><time>2026-05-03T10:30:12.669Z</time></trkpt><trkpt lat="37.508195" lon="15.0393967"><ele>180.0</ele><time>2026-05-03T10:30:14.67Z</time></trkpt><trkpt lat="37.5082017" lon="15.039275"><ele>180.0</ele><time>2026-05-03T10:30:16.67Z</time></trkpt><trkpt lat="37.5082133" lon="15.039155"><ele>180.0</ele><time>2026-05-03T10:30:18.669Z</time></trkpt><trkpt lat="37.5082117" lon="15.0390533"><ele>179.28571428571428</ele><time>2026-05-03T10:30:20.672Z</time></trkpt><trkpt lat="37.508195" lon="15.03897"><ele>178.57142857142858</ele><time>2026-05-03T10:30:22.669Z</time></trkpt><trkpt lat="37.5081883" lon="15.038885"><ele>177.85714285714286</ele><time>2026-05-03T10:30:24.673Z</time></trkpt><trkpt lat="37.5081933" lon="15.0387933"><ele>177.14285714285714</ele><time>2026-05-03T10:30:26.669Z</time></trkpt><trkpt lat="37.5082033" lon="15.0386967"><ele>176.42857142857144</ele><time>2026-05-03T10:30:28.672Z</time></trkpt><trkpt lat="37.5082367" lon="15.0386283"><ele>175.71428571428572</ele><time>2026-05-03T10:30:30.669Z</time></trkpt><trkpt lat="37.5082783" lon="15.038535"><ele>175.0</ele><time>2026-05-03T10:30:33.669Z</time></trkpt><trkpt lat="37.5082567" lon="15.0384433"><ele>175.0</ele><time>2026-05-03T10:30:35.671Z</time></trkpt><trkpt lat="37.5082167" lon="15.0383183"><ele>175.0</ele><time>2026-05-03T10:30:37.669Z</time></trkpt><trkpt lat="37.5081667" lon="15.0381883"><ele>175.0</ele><time>2026-05-03T10:30:39.671Z</time></trkpt><trkpt lat="37.5081133" lon="15.0380783"><ele>175.0</ele><time>2026-05-03T10:30:41.675Z</time></trkpt><trkpt lat="37.5080617" lon="15.037975"><ele>175.0</ele><time>2026-05-03T10:30:43.674Z</time></trkpt><trkpt lat="37.508015" lon="15.03788"><ele>175.4</ele><time>2026-05-03T10:30:45.669Z</time></trkpt><trkpt lat="37.5079783" lon="15.0377967"><ele>175.8</ele><time>2026-05-03T10:30:47.674Z</time></trkpt><trkpt lat="37.507925" lon="15.0376533"><ele>176.2</ele><time>2026-05-03T10:31:09.669Z</time></trkpt><trkpt lat="37.5078817" lon="15.0375433"><ele>176.6</ele><time>2026-05-03T10:31:11.67Z</time></trkpt><trkpt lat="37.5078283" lon="15.0374367"><ele>177.0</ele><time>2026-05-03T10:31:13.67Z</time></trkpt><trkpt lat="37.507755" lon="15.037425"><ele>177.39999999999998</ele><time>2026-05-03T10:31:15.669Z</time></trkpt><trkpt lat="37.50764" lon="15.0373583"><ele>177.79999999999998</ele><time>2026-05-03T10:31:17.669Z</time></trkpt><trkpt lat="37.5075783" lon="15.0373283"><ele>178.2</ele><time>2026-05-03T10:31:18.669Z</time></trkpt><trkpt lat="37.5075117" lon="15.03731"><ele>178.6</ele><time>2026-05-03T10:31:19.67Z</time></trkpt><trkpt lat="37.5073883" lon="15.037275"><ele>179.0</ele><time>2026-05-03T10:31:21.669Z</time></trkpt><trkpt lat="37.507275" lon="15.0372417"><ele>179.0</ele><time>2026-05-03T10:31:23.67Z</time></trkpt><trkpt lat="37.5072167" lon="15.037195"><ele>179.0</ele><time>2026-05-03T10:31:24.67Z</time></trkpt><trkpt lat="37.50711" lon="15.0371233"><ele>179.0</ele><time>2026-05-03T10:31:26.669Z</time></trkpt><trkpt lat="37.50702" lon="15.03705"><ele>179.0</ele><time>2026-05-03T10:31:28.669Z</time></trkpt><trkpt lat="37.506975" lon="15.0369917"><ele>179.0</ele><time>2026-05-03T10:31:29.669Z</time></trkpt><trkpt lat="37.5069433" lon="15.0369133"><ele>179.0</ele><time>2026-05-03T10:31:30.67Z</time></trkpt><trkpt lat="37.5069017" lon="15.0368133"><ele>178.6</ele><time>2026-05-03T10:31:31.67Z</time></trkpt><trkpt lat="37.5068667" lon="15.03673"><ele>178.2</ele><time>2026-05-03T10:31:32.67Z</time></trkpt><trkpt lat="37.5068283" lon="15.036655"><ele>177.79999999999998</ele><time>2026-05-03T10:31:33.67Z</time></trkpt><trkpt lat="37.5067433" lon="15.0365383"><ele>177.39999999999998</ele><time>2026-05-03T10:31:35.671Z</time></trkpt><trkpt lat="37.506635" lon="15.0364633"><ele>177.0</ele><time>2026-05-03T10:31:37.673Z</time></trkpt><trkpt lat="37.50651" lon="15.03643"><ele>179.0</ele><time>2026-05-03T10:31:39.669Z</time></trkpt><trkpt lat="37.5064383" lon="15.0364167"><ele>181.0</ele><time>2026-05-03T10:31:40.67Z</time></trkpt><trkpt lat="37.5063633" lon="15.03641"><ele>183.0</ele><time>2026-05-03T10:31:41.67Z</time></trkpt><trkpt lat="37.506295" lon="15.0364167"><ele>185.0</ele><time>2026-05-03T10:31:42.669Z</time></trkpt><trkpt lat="37.5062283" lon="15.03642"><ele>187.0</ele><time>2026-05-03T10:31:43.67Z</time></trkpt><trkpt lat="37.50616" lon="15.036425"><ele>189.0</ele><time>2026-05-03T10:31:44.67Z</time></trkpt><trkpt lat="37.5060917" lon="15.0364317"><ele>191.0</ele><time>2026-05-03T10:31:45.669Z</time></trkpt><trkpt lat="37.5059983" lon="15.0363783"><ele>191.33333333333331</ele><time>2026-05-03T10:31:47.669Z</time></trkpt><trkpt lat="37.505925" lon="15.0362983"><ele>191.66666666666666</ele><time>2026-05-03T10:31:49.674Z</time></trkpt><trkpt lat="37.5058667" lon="15.0362033"><ele>192.0</ele><time>2026-05-03T10:31:51.759Z</time></trkpt><trkpt lat="37.5058317" lon="15.0361"><ele>192.33333333333331</ele><time>2026-05-03T10:31:53.67Z</time></trkpt><trkpt lat="37.505815" lon="15.036"><ele>192.66666666666666</ele><time>2026-05-03T10:31:55.672Z</time></trkpt><trkpt lat="37.5057683" lon="15.0359317"><ele>193.0</ele><time>2026-05-03T10:31:57.765Z</time></trkpt><trkpt lat="37.5056617" lon="15.0358933"><ele>192.99999999999997</ele><time>2026-05-03T10:31:59.672Z</time></trkpt><trkpt lat="37.5055983" lon="15.0358733"><ele>193.0</ele><time>2026-05-03T10:32:00.675Z</time></trkpt><trkpt lat="37.5054867" lon="15.03586"><ele>193.0</ele><time>2026-05-03T10:32:02.671Z</time></trkpt><trkpt lat="37.5054083" lon="15.0358917"><ele>193.0</ele><time>2026-05-03T10:32:04.669Z</time></trkpt><trkpt lat="37.50534" lon="15.0359367"><ele>192.99999999999997</ele><time>2026-05-03T10:32:06.67Z</time></trkpt><trkpt lat="37.5052633" lon="15.0359467"><ele>193.0</ele><time>2026-05-03T10:32:09.669Z</time></trkpt><trkpt lat="37.5051817" lon="15.0359067"><ele>192.0</ele><time>2026-05-03T10:32:12.682Z</time></trkpt><trkpt lat="37.5051233" lon="15.0358583"><ele>191.0</ele><time>2026-05-03T10:32:14.673Z</time></trkpt><trkpt lat="37.5050367" lon="15.0357967"><ele>190.0</ele><time>2026-05-03T10:32:16.67Z</time></trkpt><trkpt lat="37.5049533" lon="15.0357233"><ele>189.0</ele><time>2026-05-03T10:32:18.67Z</time></trkpt><trkpt lat="37.5048717" lon="15.03565"><ele>188.0</ele><time>2026-05-03T10:32:20.67Z</time></trkpt><trkpt lat="37.5047817" lon="15.0355717"><ele>188.0</ele><time>2026-05-03T10:32:22.67Z</time></trkpt><trkpt lat="37.5046883" lon="15.035515"><ele>188.0</ele><time>2026-05-03T10:32:24.67Z</time></trkpt><trkpt lat="37.504595" lon="15.0354667"><ele>188.0</ele><time>2026-05-03T10:32:26.67Z</time></trkpt><trkpt lat="37.5045033" lon="15.0354183"><ele>188.0</ele><time>2026-05-03T10:32:28.67Z</time></trkpt><trkpt lat="37.5044133" lon="15.0353867"><ele>188.0</ele><time>2026-05-03T10:32:30.67Z</time></trkpt><trkpt lat="37.50432" lon="15.035385"><ele>185.83333333333331</ele><time>2026-05-03T10:32:32.669Z</time></trkpt><trkpt lat="37.5042433" lon="15.0353867"><ele>183.66666666666666</ele><time>2026-05-03T10:32:34.669Z</time></trkpt><trkpt lat="37.5041617" lon="15.0354217"><ele>181.5</ele><time>2026-05-03T10:32:37.673Z</time></trkpt><trkpt lat="37.504135" lon="15.0355"><ele>179.33333333333334</ele><time>2026-05-03T10:32:39.67Z</time></trkpt><trkpt lat="37.5041267" lon="15.03559"><ele>177.16666666666669</ele><time>2026-05-03T10:32:41.67Z</time></trkpt><trkpt lat="37.5041117" lon="15.0357183"><ele>175.0</ele><time>2026-05-03T10:32:43.671Z</time></trkpt><trkpt lat="37.5040933" lon="15.0358733"><ele>174.4</ele><time>2026-05-03T10:32:45.67Z</time></trkpt><trkpt lat="37.5040817" lon="15.0359533"><ele>173.8</ele><time>2026-05-03T10:32:46.67Z</time></trkpt><trkpt lat="37.5040617" lon="15.0360967"><ele>173.2</ele><time>2026-05-03T10:32:48.67Z</time></trkpt><trkpt lat="37.5040433" lon="15.036235"><ele>172.6</ele><time>2026-05-03T10:32:50.673Z</time></trkpt><trkpt lat="37.5040217" lon="15.036385"><ele>172.0</ele><time>2026-05-03T10:32:52.67Z</time></trkpt><trkpt lat="37.5040067" lon="15.0364633"><ele>172.0</ele><time>2026-05-03T10:32:53.67Z</time></trkpt><trkpt lat="37.5039767" lon="15.0366133"><ele>172.0</ele><time>2026-05-03T10:32:55.67Z</time></trkpt><trkpt lat="37.5039633" lon="15.0366933"><ele>172.0</ele><time>2026-05-03T10:32:56.67Z</time></trkpt><trkpt lat="37.5039317" lon="15.0368333"><ele>172.0</ele><time>2026-05-03T10:32:58.67Z</time></trkpt><trkpt lat="37.503915" lon="15.0369583"><ele>172.0</ele><time>2026-05-03T10:33:00.67Z</time></trkpt><trkpt lat="37.50392" lon="15.037095"><ele>171.33333333333334</ele><time>2026-05-03T10:33:02.671Z</time></trkpt><trkpt lat="37.5039317" lon="15.03718"><ele>170.66666666666669</ele><time>2026-05-03T10:33:03.67Z</time></trkpt><trkpt lat="37.5039433" lon="15.03727"><ele>170.0</ele><time>2026-05-03T10:33:04.672Z</time></trkpt><trkpt lat="37.5039583" lon="15.0373683"><ele>169.33333333333334</ele><time>2026-05-03T10:33:05.671Z</time></trkpt><trkpt lat="37.503975" lon="15.037475"><ele>168.66666666666666</ele><time>2026-05-03T10:33:06.671Z</time></trkpt><trkpt lat="37.50399" lon="15.0375867"><ele>168.0</ele><time>2026-05-03T10:33:07.669Z</time></trkpt><trkpt lat="37.504" lon="15.0376933"><ele>167.5</ele><time>2026-05-03T10:33:08.673Z</time></trkpt><trkpt lat="37.5040083" lon="15.0377883"><ele>167.0</ele><time>2026-05-03T10:33:09.669Z</time></trkpt><trkpt lat="37.5040117" lon="15.03787"><ele>166.5</ele><time>2026-05-03T10:33:10.672Z</time></trkpt><trkpt lat="37.504015" lon="15.0380183"><ele>166.0</ele><time>2026-05-03T10:33:12.668Z</time></trkpt><trkpt lat="37.5040217" lon="15.038135"><ele>165.5</ele><time>2026-05-03T10:33:14.672Z</time></trkpt><trkpt lat="37.5040267" lon="15.0382433"><ele>165.0</ele><time>2026-05-03T10:33:16.67Z</time></trkpt><trkpt lat="37.5040283" lon="15.0383483"><ele>164.33333333333334</ele><time>2026-05-03T10:33:18.669Z</time></trkpt><trkpt lat="37.50403" lon="15.03845"><ele>163.66666666666666</ele><time>2026-05-03T10:33:20.668Z</time></trkpt><trkpt lat="37.5040317" lon="15.038555"><ele>163.0</ele><time>2026-05-03T10:33:22.669Z</time></trkpt><trkpt lat="37.504035" lon="15.038665"><ele>162.33333333333331</ele><time>2026-05-03T10:33:24.669Z</time></trkpt><trkpt lat="37.5040417" lon="15.0387533"><ele>161.66666666666666</ele><time>2026-05-03T10:33:26.669Z</time></trkpt><trkpt lat="37.50405" lon="15.03887"><ele>161.0</ele><time>2026-05-03T10:33:29.671Z</time></trkpt><trkpt lat="37.5040517" lon="15.0389683"><ele>161.0</ele><time>2026-05-03T10:33:31.676Z</time></trkpt><trkpt lat="37.5040517" lon="15.039075"><ele>161.0</ele><time>2026-05-03T10:33:33.67Z</time></trkpt><trkpt lat="37.5040367" lon="15.03919"><ele>161.0</ele><time>2026-05-03T10:33:35.67Z</time></trkpt><trkpt lat="37.5040083" lon="15.03929"><ele>161.0</ele><time>2026-05-03T10:33:37.67Z</time></trkpt><trkpt lat="37.5039883" lon="15.03938"><ele>161.0</ele><time>2026-05-03T10:33:39.67Z</time></trkpt><trkpt lat="37.5039717" lon="15.0394667"><ele>161.0</ele><time>2026-05-03T10:33:41.671Z</time></trkpt><trkpt lat="37.5039483" lon="15.0395683"><ele>159.16666666666666</ele><time>2026-05-03T10:33:44.671Z</time></trkpt><trkpt lat="37.5039317" lon="15.0396733"><ele>157.33333333333331</ele><time>2026-05-03T10:33:47.669Z</time></trkpt><trkpt lat="37.5039167" lon="15.0397567"><ele>155.5</ele><time>2026-05-03T10:33:49.67Z</time></trkpt><trkpt lat="37.5039033" lon="15.0398483"><ele>153.66666666666666</ele><time>2026-05-03T10:33:51.671Z</time></trkpt><trkpt lat="37.50388" lon="15.0399483"><ele>151.83333333333334</ele><time>2026-05-03T10:33:53.672Z</time></trkpt><trkpt lat="37.5038583" lon="15.04006"><ele>150.0</ele><time>2026-05-03T10:33:55.67Z</time></trkpt><trkpt lat="37.503855" lon="15.0401733"><ele>148.66666666666666</ele><time>2026-05-03T10:33:57.672Z</time></trkpt><trkpt lat="37.503875" lon="15.0403267"><ele>147.33333333333334</ele><time>2026-05-03T10:33:59.672Z</time></trkpt><trkpt lat="37.5038833" lon="15.04041"><ele>146.0</ele><time>2026-05-03T10:34:00.671Z</time></trkpt><trkpt lat="37.5038967" lon="15.0405467"><ele>144.66666666666669</ele><time>2026-05-03T10:34:02.67Z</time></trkpt><trkpt lat="37.5039083" lon="15.040645"><ele>143.33333333333334</ele><time>2026-05-03T10:34:04.674Z</time></trkpt><trkpt lat="37.503945" lon="15.0407167"><ele>142.0</ele><time>2026-05-03T10:34:07.671Z</time></trkpt><trkpt lat="37.50404" lon="15.0407267"><ele>142.0</ele><time>2026-05-03T10:34:10.675Z</time></trkpt><trkpt lat="37.5041217" lon="15.0407633"><ele>142.0</ele><time>2026-05-03T10:34:12.669Z</time></trkpt><trkpt lat="37.5041917" lon="15.0407717"><ele>142.0</ele><time>2026-05-03T10:34:14.67Z</time></trkpt><trkpt lat="37.50426" lon="15.04073"><ele>142.0</ele><time>2026-05-03T10:34:16.669Z</time></trkpt><trkpt lat="37.504335" lon="15.0406517"><ele>142.0</ele><time>2026-05-03T10:34:18.669Z</time></trkpt><trkpt lat="37.5044083" lon="15.0405533"><ele>142.0</ele><time>2026-05-03T10:34:20.674Z</time></trkpt><trkpt lat="37.5044883" lon="15.0404633"><ele>142.0</ele><time>2026-05-03T10:34:22.67Z</time></trkpt><trkpt lat="37.504555" lon="15.0403767"><ele>142.0</ele><time>2026-05-03T10:34:24.669Z</time></trkpt><trkpt lat="37.50462" lon="15.0402917"><ele>142.0</ele><time>2026-05-03T10:34:26.674Z</time></trkpt><trkpt lat="37.5047" lon="15.04023"><ele>142.0</ele><time>2026-05-03T10:34:28.672Z</time></trkpt><trkpt lat="37.5047917" lon="15.04015"><ele>142.0</ele><time>2026-05-03T10:34:30.669Z</time></trkpt><trkpt lat="37.504885" lon="15.0400633"><ele>142.6</ele><time>2026-05-03T10:34:32.668Z</time></trkpt><trkpt lat="37.5049767" lon="15.0399767"><ele>143.2</ele><time>2026-05-03T10:34:34.668Z</time></trkpt><trkpt lat="37.5050567" lon="15.0398817"><ele>143.8</ele><time>2026-05-03T10:34:36.67Z</time></trkpt><trkpt lat="37.505125" lon="15.0397583"><ele>144.4</ele><time>2026-05-03T10:34:38.669Z</time></trkpt><trkpt lat="37.50516" lon="15.03969"><ele>145.0</ele><time>2026-05-03T10:34:39.669Z</time></trkpt><trkpt lat="37.5051933" lon="15.0396183"><ele>145.57142857142858</ele><time>2026-05-03T10:34:40.669Z</time></trkpt><trkpt lat="37.50523" lon="15.0395483"><ele>146.14285714285717</ele><time>2026-05-03T10:34:41.673Z</time></trkpt><trkpt lat="37.5052717" lon="15.03948"><ele>146.71428571428572</ele><time>2026-05-03T10:34:42.671Z</time></trkpt><trkpt lat="37.5053233" lon="15.0394183"><ele>147.28571428571428</ele><time>2026-05-03T10:34:43.67Z</time></trkpt><trkpt lat="37.50538" lon="15.0393633"><ele>147.85714285714283</ele><time>2026-05-03T10:34:44.673Z</time></trkpt><trkpt lat="37.5054467" lon="15.0393133"><ele>148.42857142857142</ele><time>2026-05-03T10:34:45.669Z</time></trkpt><trkpt lat="37.505515" lon="15.0392733"><ele>149.0</ele><time>2026-05-03T10:34:46.671Z</time></trkpt><trkpt lat="37.5055733" lon="15.03924"><ele>149.0</ele><time>2026-05-03T10:34:47.669Z</time></trkpt><trkpt lat="37.505665" lon="15.0391633"><ele>149.0</ele><time>2026-05-03T10:34:49.671Z</time></trkpt><trkpt lat="37.5057517" lon="15.0390833"><ele>149.0</ele><time>2026-05-03T10:34:51.67Z</time></trkpt><trkpt lat="37.505865" lon="15.0390267"><ele>149.0</ele><time>2026-05-03T10:34:53.671Z</time></trkpt><trkpt lat="37.5059317" lon="15.0389967"><ele>149.0</ele><time>2026-05-03T10:34:54.669Z</time></trkpt><trkpt lat="37.5060017" lon="15.038965"><ele>150.14285714285714</ele><time>2026-05-03T10:34:55.668Z</time></trkpt><trkpt lat="37.50607" lon="15.0389333"><ele>151.28571428571428</ele><time>2026-05-03T10:34:56.676Z</time></trkpt><trkpt lat="37.5061333" lon="15.0389017"><ele>152.42857142857142</ele><time>2026-05-03T10:34:57.669Z</time></trkpt><trkpt lat="37.5061967" lon="15.038865"><ele>153.57142857142856</ele><time>2026-05-03T10:34:58.672Z</time></trkpt><trkpt lat="37.50626" lon="15.0388283"><ele>154.71428571428572</ele><time>2026-05-03T10:34:59.673Z</time></trkpt><trkpt lat="37.506325" lon="15.0387983"><ele>155.85714285714283</ele><time>2026-05-03T10:35:00.672Z</time></trkpt><trkpt lat="37.5063883" lon="15.0387733"><ele>157.0</ele><time>2026-05-03T10:35:01.673Z</time></trkpt><trkpt lat="37.50645" lon="15.0387483"><ele>157.2</ele><time>2026-05-03T10:35:02.672Z</time></trkpt><trkpt lat="37.5065417" lon="15.0387117"><ele>157.39999999999998</ele><time>2026-05-03T10:35:04.676Z</time></trkpt><trkpt lat="37.5066383" lon="15.038675"><ele>157.60000000000002</ele><time>2026-05-03T10:35:06.669Z</time></trkpt><trkpt lat="37.5067383" lon="15.0386683"><ele>157.8</ele><time>2026-05-03T10:35:08.671Z</time></trkpt><trkpt lat="37.5068167" lon="15.0386367"><ele>158.0</ele><time>2026-05-03T10:35:10.669Z</time></trkpt><trkpt lat="37.50689" lon="15.0385717"><ele>158.0</ele><time>2026-05-03T10:35:12.668Z</time></trkpt><trkpt lat="37.5069733" lon="15.0385117"><ele>158.0</ele><time>2026-05-03T10:35:14.672Z</time></trkpt><trkpt lat="37.507065" lon="15.0384517"><ele>158.0</ele><time>2026-05-03T10:35:16.67Z</time></trkpt><trkpt lat="37.5071617" lon="15.0383883"><ele>158.0</ele><time>2026-05-03T10:35:18.67Z</time></trkpt><trkpt lat="37.50725" lon="15.038295"><ele>158.0</ele><time>2026-05-03T10:35:20.672Z</time></trkpt><trkpt lat="37.5073233" lon="15.038195"><ele>162.75</ele><time>2026-05-03T10:35:22.671Z</time></trkpt><trkpt lat="37.5074033" lon="15.0381033"><ele>167.5</ele><time>2026-05-03T10:35:24.67Z</time></trkpt><trkpt lat="37.5074433" lon="15.0379767"><ele>172.25</ele><time>2026-05-03T10:35:26.67Z</time></trkpt><trkpt lat="37.5074567" lon="15.0378367"><ele>177.0</ele><time>2026-05-03T10:35:28.669Z</time></trkpt><trkpt lat="37.5074383" lon="15.03767"><ele>177.0</ele><time>2026-05-03T10:35:30.67Z</time></trkpt><trkpt lat="37.507425" lon="15.0375867"><ele>177.0</ele><time>2026-05-03T10:35:31.756Z</time></trkpt><trkpt lat="37.5074017" lon="15.0375017"><ele>177.0</ele><time>2026-05-03T10:35:32.671Z</time></trkpt><trkpt lat="37.507375" lon="15.0374233"><ele>177.0</ele><time>2026-05-03T10:35:33.668Z</time></trkpt><trkpt lat="37.5073333" lon="15.0373067"><ele>177.0</ele><time>2026-05-03T10:35:35.67Z</time></trkpt><trkpt lat="37.5073" lon="15.037235"><ele>177.0</ele><time>2026-05-03T10:35:37.671Z</time></trkpt><trkpt lat="37.5072233" lon="15.0371733"><ele>177.0</ele><time>2026-05-03T10:35:40.67Z</time></trkpt><trkpt lat="37.5071417" lon="15.0371217"><ele>177.0</ele><time>2026-05-03T10:35:42.668Z</time></trkpt><trkpt lat="37.5070417" lon="15.0370617"><ele>177.0</ele><time>2026-05-03T10:35:44.669Z</time></trkpt><trkpt lat="37.5069883" lon="15.0369617"><ele>177.0</ele><time>2026-05-03T10:35:46.67Z</time></trkpt><trkpt lat="37.5069367" lon="15.036845"><ele>177.0</ele><time>2026-05-03T10:35:48.67Z</time></trkpt><trkpt lat="37.50689" lon="15.0367383"><ele>177.0</ele><time>2026-05-03T10:35:50.67Z</time></trkpt><trkpt lat="37.5068333" lon="15.0366417"><ele>177.0</ele><time>2026-05-03T10:35:52.67Z</time></trkpt><trkpt lat="37.5067583" lon="15.0365467"><ele>191.0</ele><time>2026-05-03T10:35:54.669Z</time></trkpt><trkpt lat="37.5066633" lon="15.0364667"><ele>191.0</ele><time>2026-05-03T10:35:56.669Z</time></trkpt><trkpt lat="37.506575" lon="15.0364333"><ele>191.0</ele><time>2026-05-03T10:35:58.67Z</time></trkpt></trkseg></trk></gpx>